sensor_id;sensor_type;location;lat;lon;timestamp;P1;durP1;ratioP1;P2;durP2;ratioP2
47760;SDS011;33524;55.434;38.520;2023-05-07T00:01:27;16.27;;;9.50;;
47760;SDS011;33524;55.434;38.520;2023-05-07T00:03:55;17.23;;;9.48;;
47760;SDS011;33524;55.434;38.520;2023-05-07T00:06:23;12.75;;;8.73;;
47760;SDS011;33524;55.434;38.520;2023-05-07T00:08:53;15.82;;;9.50;;
47760;SDS011;33524;55.434;38.520;2023-05-07T00:11:21;16.17;;;10.05;;
47760;SDS011;33524;55.434;38.520;2023-05-07T00:13:49;17.15;;;9.70;;
47760;SDS011;33524;55.434;38.520;2023-05-07T00:16:17;17.17;;;9.15;;
47760;SDS011;33524;55.434;38.520;2023-05-07T00:18:45;17.80;;;9.43;;
47760;SDS011;33524;55.434;38.520;2023-05-07T00:21:13;15.10;;;10.10;;
47760;SDS011;33524;55.434;38.520;2023-05-07T00:23:42;15.57;;;9.43;;
47760;SDS011;33524;55.434;38.520;2023-05-07T00:26:10;17.55;;;9.07;;
47760;SDS011;33524;55.434;38.520;2023-05-07T00:28:39;20.33;;;9.93;;
47760;SDS011;33524;55.434;38.520;2023-05-07T00:31:07;18.90;;;10.00;;
47760;SDS011;33524;55.434;38.520;2023-05-07T00:33:35;16.70;;;9.65;;
47760;SDS011;33524;55.434;38.520;2023-05-07T00:36:03;16.83;;;9.05;;
47760;SDS011;33524;55.434;38.520;2023-05-07T00:38:32;13.82;;;9.10;;
47760;SDS011;33524;55.434;38.520;2023-05-07T00:41:00;14.25;;;8.27;;
47760;SDS011;33524;55.434;38.520;2023-05-07T00:43:29;17.15;;;9.25;;
47760;SDS011;33524;55.434;38.520;2023-05-07T00:45:59;14.93;;;9.10;;
47760;SDS011;33524;55.434;38.520;2023-05-07T00:48:28;13.43;;;9.07;;
47760;SDS011;33524;55.434;38.520;2023-05-07T00:50:57;16.60;;;8.95;;
47760;SDS011;33524;55.434;38.520;2023-05-07T00:53:25;12.90;;;8.65;;
47760;SDS011;33524;55.434;38.520;2023-05-07T00:55:54;14.32;;;8.98;;
47760;SDS011;33524;55.434;38.520;2023-05-07T00:58:23;15.15;;;9.25;;
47760;SDS011;33524;55.434;38.520;2023-05-07T01:00:52;14.20;;;8.57;;
47760;SDS011;33524;55.434;38.520;2023-05-07T01:03:20;14.13;;;8.85;;
47760;SDS011;33524;55.434;38.520;2023-05-07T01:05:49;13.88;;;8.85;;
47760;SDS011;33524;55.434;38.520;2023-05-07T01:08:20;14.50;;;8.98;;
47760;SDS011;33524;55.434;38.520;2023-05-07T01:10:50;12.70;;;9.15;;
47760;SDS011;33524;55.434;38.520;2023-05-07T01:13:18;15.60;;;9.20;;
47760;SDS011;33524;55.434;38.520;2023-05-07T01:15:48;12.30;;;9.10;;
47760;SDS011;33524;55.434;38.520;2023-05-07T01:18:16;13.65;;;8.50;;
47760;SDS011;33524;55.434;38.520;2023-05-07T01:20:45;17.67;;;10.07;;
47760;SDS011;33524;55.434;38.520;2023-05-07T01:23:14;14.05;;;9.07;;
47760;SDS011;33524;55.434;38.520;2023-05-07T01:25:43;19.12;;;9.43;;
47760;SDS011;33524;55.434;38.520;2023-05-07T01:28:19;15.32;;;9.25;;
47760;SDS011;33524;55.434;38.520;2023-05-07T01:30:52;14.43;;;8.70;;
47760;SDS011;33524;55.434;38.520;2023-05-07T01:33:24;17.10;;;9.60;;
47760;SDS011;33524;55.434;38.520;2023-05-07T01:35:58;17.23;;;8.45;;
47760;SDS011;33524;55.434;38.520;2023-05-07T01:38:30;24.37;;;12.50;;
47760;SDS011;33524;55.434;38.520;2023-05-07T01:40:58;22.45;;;11.73;;
47760;SDS011;33524;55.434;38.520;2023-05-07T01:43:26;23.38;;;11.23;;
47760;SDS011;33524;55.434;38.520;2023-05-07T01:45:56;20.23;;;10.82;;
47760;SDS011;33524;55.434;38.520;2023-05-07T01:48:26;18.42;;;11.20;;
47760;SDS011;33524;55.434;38.520;2023-05-07T01:50:55;19.75;;;10.45;;
47760;SDS011;33524;55.434;38.520;2023-05-07T01:53:23;18.30;;;10.35;;
47760;SDS011;33524;55.434;38.520;2023-05-07T01:55:54;23.27;;;11.77;;
47760;SDS011;33524;55.434;38.520;2023-05-07T01:58:23;20.25;;;11.48;;
47760;SDS011;33524;55.434;38.520;2023-05-07T02:00:52;19.00;;;11.55;;
47760;SDS011;33524;55.434;38.520;2023-05-07T02:03:20;26.95;;;13.23;;
47760;SDS011;33524;55.434;38.520;2023-05-07T02:05:49;20.35;;;12.23;;
47760;SDS011;33524;55.434;38.520;2023-05-07T02:08:18;21.75;;;13.07;;
47760;SDS011;33524;55.434;38.520;2023-05-07T02:10:46;25.77;;;12.65;;
47760;SDS011;33524;55.434;38.520;2023-05-07T02:13:14;21.37;;;12.23;;
47760;SDS011;33524;55.434;38.520;2023-05-07T02:15:43;17.60;;;11.90;;
47760;SDS011;33524;55.434;38.520;2023-05-07T02:18:15;20.33;;;10.03;;
47760;SDS011;33524;55.434;38.520;2023-05-07T02:20:44;21.40;;;11.80;;
47760;SDS011;33524;55.434;38.520;2023-05-07T02:23:16;24.42;;;11.57;;
47760;SDS011;33524;55.434;38.520;2023-05-07T02:25:45;17.83;;;11.40;;
47760;SDS011;33524;55.434;38.520;2023-05-07T02:28:13;18.45;;;11.75;;
47760;SDS011;33524;55.434;38.520;2023-05-07T02:30:41;25.85;;;14.07;;
47760;SDS011;33524;55.434;38.520;2023-05-07T02:33:10;19.40;;;12.68;;
47760;SDS011;33524;55.434;38.520;2023-05-07T02:35:40;16.55;;;12.13;;
47760;SDS011;33524;55.434;38.520;2023-05-07T02:38:09;17.70;;;11.05;;
47760;SDS011;33524;55.434;38.520;2023-05-07T02:40:38;16.77;;;10.27;;
47760;SDS011;33524;55.434;38.520;2023-05-07T02:43:08;14.48;;;11.38;;
47760;SDS011;33524;55.434;38.520;2023-05-07T02:45:37;17.37;;;9.68;;
47760;SDS011;33524;55.434;38.520;2023-05-07T02:48:05;14.95;;;9.63;;
47760;SDS011;33524;55.434;38.520;2023-05-07T02:50:34;21.23;;;11.25;;
47760;SDS011;33524;55.434;38.520;2023-05-07T02:53:02;24.30;;;11.05;;
47760;SDS011;33524;55.434;38.520;2023-05-07T02:55:31;13.20;;;9.32;;
47760;SDS011;33524;55.434;38.520;2023-05-07T02:57:59;14.27;;;9.65;;
47760;SDS011;33524;55.434;38.520;2023-05-07T03:00:28;13.52;;;9.02;;
47760;SDS011;33524;55.434;38.520;2023-05-07T03:02:58;14.68;;;9.98;;
47760;SDS011;33524;55.434;38.520;2023-05-07T03:05:26;19.85;;;11.40;;
47760;SDS011;33524;55.434;38.520;2023-05-07T03:07:54;14.02;;;9.15;;
47760;SDS011;33524;55.434;38.520;2023-05-07T03:10:22;15.43;;;10.10;;
47760;SDS011;33524;55.434;38.520;2023-05-07T03:12:50;16.65;;;9.98;;
47760;SDS011;33524;55.434;38.520;2023-05-07T03:15:18;13.90;;;9.30;;
47760;SDS011;33524;55.434;38.520;2023-05-07T03:17:47;13.32;;;9.13;;
47760;SDS011;33524;55.434;38.520;2023-05-07T03:20:16;16.27;;;10.05;;
47760;SDS011;33524;55.434;38.520;2023-05-07T03:22:45;12.98;;;9.60;;
47760;SDS011;33524;55.434;38.520;2023-05-07T03:25:13;13.85;;;9.68;;
47760;SDS011;33524;55.434;38.520;2023-05-07T03:27:42;15.57;;;11.15;;
47760;SDS011;33524;55.434;38.520;2023-05-07T03:30:10;12.48;;;8.38;;
47760;SDS011;33524;55.434;38.520;2023-05-07T03:32:40;14.43;;;7.43;;
47760;SDS011;33524;55.434;38.520;2023-05-07T03:35:09;13.65;;;8.70;;
47760;SDS011;33524;55.434;38.520;2023-05-07T03:37:37;11.95;;;7.22;;
47760;SDS011;33524;55.434;38.520;2023-05-07T03:40:07;11.32;;;8.40;;
47760;SDS011;33524;55.434;38.520;2023-05-07T03:42:40;10.98;;;6.55;;
47760;SDS011;33524;55.434;38.520;2023-05-07T03:45:09;13.82;;;7.03;;
47760;SDS011;33524;55.434;38.520;2023-05-07T03:47:39;11.75;;;6.20;;
47760;SDS011;33524;55.434;38.520;2023-05-07T03:50:08;10.18;;;7.32;;
47760;SDS011;33524;55.434;38.520;2023-05-07T03:52:37;9.27;;;5.35;;
47760;SDS011;33524;55.434;38.520;2023-05-07T03:55:06;10.65;;;5.50;;
47760;SDS011;33524;55.434;38.520;2023-05-07T03:57:35;8.55;;;5.45;;
47760;SDS011;33524;55.434;38.520;2023-05-07T04:00:04;9.93;;;5.57;;
47760;SDS011;33524;55.434;38.520;2023-05-07T04:02:35;15.45;;;6.47;;
47760;SDS011;33524;55.434;38.520;2023-05-07T04:05:04;12.13;;;5.80;;
47760;SDS011;33524;55.434;38.520;2023-05-07T04:07:32;9.75;;;5.40;;
47760;SDS011;33524;55.434;38.520;2023-05-07T04:10:01;7.22;;;4.05;;
47760;SDS011;33524;55.434;38.520;2023-05-07T04:12:30;7.00;;;5.10;;
47760;SDS011;33524;55.434;38.520;2023-05-07T04:14:59;8.02;;;4.12;;
47760;SDS011;33524;55.434;38.520;2023-05-07T04:17:28;9.40;;;4.93;;
47760;SDS011;33524;55.434;38.520;2023-05-07T04:19:56;6.78;;;4.10;;
47760;SDS011;33524;55.434;38.520;2023-05-07T04:22:25;6.78;;;3.83;;
47760;SDS011;33524;55.434;38.520;2023-05-07T04:24:54;5.70;;;3.87;;
47760;SDS011;33524;55.434;38.520;2023-05-07T04:27:23;4.90;;;3.33;;
47760;SDS011;33524;55.434;38.520;2023-05-07T04:29:51;4.87;;;3.50;;
47760;SDS011;33524;55.434;38.520;2023-05-07T04:32:24;5.45;;;2.80;;
47760;SDS011;33524;55.434;38.520;2023-05-07T04:34:52;4.22;;;2.60;;
47760;SDS011;33524;55.434;38.520;2023-05-07T04:37:21;4.57;;;2.80;;
47760;SDS011;33524;55.434;38.520;2023-05-07T04:39:50;4.68;;;2.60;;
47760;SDS011;33524;55.434;38.520;2023-05-07T04:42:18;5.87;;;2.37;;
47760;SDS011;33524;55.434;38.520;2023-05-07T04:44:46;3.83;;;2.60;;
47760;SDS011;33524;55.434;38.520;2023-05-07T04:47:14;4.12;;;2.72;;
47760;SDS011;33524;55.434;38.520;2023-05-07T04:49:42;4.95;;;2.10;;
47760;SDS011;33524;55.434;38.520;2023-05-07T04:52:11;3.80;;;2.30;;
47760;SDS011;33524;55.434;38.520;2023-05-07T04:54:39;3.50;;;2.15;;
47760;SDS011;33524;55.434;38.520;2023-05-07T04:57:07;2.90;;;1.80;;
47760;SDS011;33524;55.434;38.520;2023-05-07T04:59:41;3.40;;;1.98;;
47760;SDS011;33524;55.434;38.520;2023-05-07T05:02:11;4.47;;;2.20;;
47760;SDS011;33524;55.434;38.520;2023-05-07T05:04:41;2.87;;;1.85;;
47760;SDS011;33524;55.434;38.520;2023-05-07T05:07:09;3.92;;;1.83;;
47760;SDS011;33524;55.434;38.520;2023-05-07T05:09:37;3.75;;;2.65;;
47760;SDS011;33524;55.434;38.520;2023-05-07T05:12:06;3.15;;;1.75;;
47760;SDS011;33524;55.434;38.520;2023-05-07T05:14:37;2.37;;;1.60;;
47760;SDS011;33524;55.434;38.520;2023-05-07T05:17:06;3.30;;;1.65;;
47760;SDS011;33524;55.434;38.520;2023-05-07T05:19:35;3.03;;;1.77;;
47760;SDS011;33524;55.434;38.520;2023-05-07T05:22:03;2.55;;;1.60;;
47760;SDS011;33524;55.434;38.520;2023-05-07T05:24:31;4.85;;;2.10;;
47760;SDS011;33524;55.434;38.520;2023-05-07T05:27:00;2.22;;;1.62;;
47760;SDS011;33524;55.434;38.520;2023-05-07T05:29:29;2.85;;;1.37;;
47760;SDS011;33524;55.434;38.520;2023-05-07T05:32:00;3.87;;;1.48;;
47760;SDS011;33524;55.434;38.520;2023-05-07T05:34:29;3.17;;;1.98;;
47760;SDS011;33524;55.434;38.520;2023-05-07T05:36:58;2.00;;;1.42;;
47760;SDS011;33524;55.434;38.520;2023-05-07T05:39:27;3.05;;;1.90;;
47760;SDS011;33524;55.434;38.520;2023-05-07T05:41:55;2.30;;;1.48;;
47760;SDS011;33524;55.434;38.520;2023-05-07T05:44:24;1.15;;;1.05;;
47760;SDS011;33524;55.434;38.520;2023-05-07T05:46:53;1.85;;;1.40;;
47760;SDS011;33524;55.434;38.520;2023-05-07T05:49:25;1.57;;;1.33;;
47760;SDS011;33524;55.434;38.520;2023-05-07T05:51:53;2.60;;;1.73;;
47760;SDS011;33524;55.434;38.520;2023-05-07T05:54:23;1.83;;;1.42;;
47760;SDS011;33524;55.434;38.520;2023-05-07T05:56:51;2.85;;;1.33;;
47760;SDS011;33524;55.434;38.520;2023-05-07T05:59:19;2.53;;;1.70;;
47760;SDS011;33524;55.434;38.520;2023-05-07T06:01:48;2.33;;;1.75;;
47760;SDS011;33524;55.434;38.520;2023-05-07T06:04:16;3.65;;;1.87;;
47760;SDS011;33524;55.434;38.520;2023-05-07T06:06:45;1.92;;;1.37;;
47760;SDS011;33524;55.434;38.520;2023-05-07T06:09:13;4.03;;;1.70;;
47760;SDS011;33524;55.434;38.520;2023-05-07T06:11:42;2.65;;;1.40;;
47760;SDS011;33524;55.434;38.520;2023-05-07T06:14:10;2.72;;;1.33;;
47760;SDS011;33524;55.434;38.520;2023-05-07T06:16:38;2.78;;;1.52;;
47760;SDS011;33524;55.434;38.520;2023-05-07T06:19:07;1.90;;;1.48;;
47760;SDS011;33524;55.434;38.520;2023-05-07T06:21:36;2.92;;;1.60;;
47760;SDS011;33524;55.434;38.520;2023-05-07T06:24:04;2.75;;;1.67;;
47760;SDS011;33524;55.434;38.520;2023-05-07T06:26:34;4.82;;;1.85;;
47760;SDS011;33524;55.434;38.520;2023-05-07T06:29:02;2.00;;;1.80;;
47760;SDS011;33524;55.434;38.520;2023-05-07T06:31:30;2.75;;;1.70;;
47760;SDS011;33524;55.434;38.520;2023-05-07T06:34:02;2.12;;;1.52;;
47760;SDS011;33524;55.434;38.520;2023-05-07T06:36:31;1.83;;;1.60;;
47760;SDS011;33524;55.434;38.520;2023-05-07T06:39:00;5.55;;;2.25;;
47760;SDS011;33524;55.434;38.520;2023-05-07T06:41:29;1.55;;;1.30;;
47760;SDS011;33524;55.434;38.520;2023-05-07T06:43:58;3.08;;;1.60;;
47760;SDS011;33524;55.434;38.520;2023-05-07T06:46:28;2.92;;;1.85;;
47760;SDS011;33524;55.434;38.520;2023-05-07T06:48:57;3.10;;;1.55;;
47760;SDS011;33524;55.434;38.520;2023-05-07T06:51:26;2.87;;;1.37;;
47760;SDS011;33524;55.434;38.520;2023-05-07T06:53:54;4.15;;;1.70;;
47760;SDS011;33524;55.434;38.520;2023-05-07T06:56:23;2.53;;;1.77;;
47760;SDS011;33524;55.434;38.520;2023-05-07T06:58:52;4.45;;;1.80;;
47760;SDS011;33524;55.434;38.520;2023-05-07T07:01:20;1.90;;;1.30;;
47760;SDS011;33524;55.434;38.520;2023-05-07T07:03:49;3.17;;;1.98;;
47760;SDS011;33524;55.434;38.520;2023-05-07T07:06:19;2.37;;;1.83;;
47760;SDS011;33524;55.434;38.520;2023-05-07T07:08:47;4.20;;;1.75;;
47760;SDS011;33524;55.434;38.520;2023-05-07T07:11:16;2.72;;;2.00;;
47760;SDS011;33524;55.434;38.520;2023-05-07T07:13:44;2.75;;;1.62;;
47760;SDS011;33524;55.434;38.520;2023-05-07T07:16:13;2.92;;;1.80;;
47760;SDS011;33524;55.434;38.520;2023-05-07T07:18:41;2.50;;;1.70;;
47760;SDS011;33524;55.434;38.520;2023-05-07T07:21:10;2.70;;;2.00;;
47760;SDS011;33524;55.434;38.520;2023-05-07T07:23:38;3.92;;;1.80;;
47760;SDS011;33524;55.434;38.520;2023-05-07T07:26:07;3.45;;;1.73;;
47760;SDS011;33524;55.434;38.520;2023-05-07T07:28:41;2.33;;;1.50;;
47760;SDS011;33524;55.434;38.520;2023-05-07T07:31:13;4.00;;;2.05;;
47760;SDS011;33524;55.434;38.520;2023-05-07T07:33:41;4.03;;;1.95;;
47760;SDS011;33524;55.434;38.520;2023-05-07T07:36:10;2.33;;;1.45;;
47760;SDS011;33524;55.434;38.520;2023-05-07T07:38:38;4.40;;;1.85;;
47760;SDS011;33524;55.434;38.520;2023-05-07T07:41:07;3.70;;;1.58;;
47760;SDS011;33524;55.434;38.520;2023-05-07T07:43:36;3.55;;;1.87;;
47760;SDS011;33524;55.434;38.520;2023-05-07T07:46:08;1.92;;;1.25;;
47760;SDS011;33524;55.434;38.520;2023-05-07T07:48:37;2.35;;;1.52;;
47760;SDS011;33524;55.434;38.520;2023-05-07T07:51:05;4.22;;;1.80;;
47760;SDS011;33524;55.434;38.520;2023-05-07T07:53:34;2.40;;;1.60;;
47760;SDS011;33524;55.434;38.520;2023-05-07T07:56:03;3.25;;;2.10;;
47760;SDS011;33524;55.434;38.520;2023-05-07T07:58:32;7.97;;;2.45;;
47760;SDS011;33524;55.434;38.520;2023-05-07T08:01:01;2.97;;;2.30;;
47760;SDS011;33524;55.434;38.520;2023-05-07T08:03:30;3.67;;;1.87;;
47760;SDS011;33524;55.434;38.520;2023-05-07T08:06:01;3.90;;;2.55;;
47760;SDS011;33524;55.434;38.520;2023-05-07T08:08:30;1.95;;;1.42;;
47760;SDS011;33524;55.434;38.520;2023-05-07T08:10:59;2.30;;;1.80;;
47760;SDS011;33524;55.434;38.520;2023-05-07T08:13:27;2.65;;;1.65;;
47760;SDS011;33524;55.434;38.520;2023-05-07T08:15:57;3.85;;;2.03;;
47760;SDS011;33524;55.434;38.520;2023-05-07T08:18:25;4.20;;;1.92;;
47760;SDS011;33524;55.434;38.520;2023-05-07T08:20:57;2.17;;;1.45;;
47760;SDS011;33524;55.434;38.520;2023-05-07T08:23:26;2.58;;;1.83;;
47760;SDS011;33524;55.434;38.520;2023-05-07T08:25:55;4.07;;;2.17;;
47760;SDS011;33524;55.434;38.520;2023-05-07T08:28:24;3.60;;;1.77;;
47760;SDS011;33524;55.434;38.520;2023-05-07T08:30:52;4.60;;;1.95;;
47760;SDS011;33524;55.434;38.520;2023-05-07T08:33:20;4.05;;;1.50;;
47760;SDS011;33524;55.434;38.520;2023-05-07T08:35:49;3.50;;;2.33;;
47760;SDS011;33524;55.434;38.520;2023-05-07T08:38:18;2.17;;;1.60;;
47760;SDS011;33524;55.434;38.520;2023-05-07T08:40:46;2.22;;;1.92;;
47760;SDS011;33524;55.434;38.520;2023-05-07T08:43:18;3.50;;;2.60;;
47760;SDS011;33524;55.434;38.520;2023-05-07T08:45:47;2.92;;;2.12;;
47760;SDS011;33524;55.434;38.520;2023-05-07T08:48:23;2.35;;;1.73;;
47760;SDS011;33524;55.434;38.520;2023-05-07T08:50:54;3.65;;;2.28;;
47760;SDS011;33524;55.434;38.520;2023-05-07T08:53:22;3.03;;;2.17;;
47760;SDS011;33524;55.434;38.520;2023-05-07T08:55:51;3.97;;;1.75;;
47760;SDS011;33524;55.434;38.520;2023-05-07T08:58:20;2.53;;;1.48;;
47760;SDS011;33524;55.434;38.520;2023-05-07T09:00:49;1.95;;;1.35;;
47760;SDS011;33524;55.434;38.520;2023-05-07T09:03:21;3.37;;;2.12;;
47760;SDS011;33524;55.434;38.520;2023-05-07T09:05:50;4.28;;;2.20;;
47760;SDS011;33524;55.434;38.520;2023-05-07T09:08:19;2.53;;;1.80;;
47760;SDS011;33524;55.434;38.520;2023-05-07T09:10:54;5.35;;;1.90;;
47760;SDS011;33524;55.434;38.520;2023-05-07T09:13:23;3.55;;;2.00;;
47760;SDS011;33524;55.434;38.520;2023-05-07T09:15:52;3.95;;;1.40;;
47760;SDS011;33524;55.434;38.520;2023-05-07T09:18:23;2.85;;;1.58;;
47760;SDS011;33524;55.434;38.520;2023-05-07T09:20:53;3.50;;;1.65;;
47760;SDS011;33524;55.434;38.520;2023-05-07T09:23:23;9.80;;;5.20;;
47760;SDS011;33524;55.434;38.520;2023-05-07T09:25:53;3.58;;;2.70;;
47760;SDS011;33524;55.434;38.520;2023-05-07T09:28:30;3.60;;;2.70;;
47760;SDS011;33524;55.434;38.520;2023-05-07T09:31:00;4.15;;;2.65;;
47760;SDS011;33524;55.434;38.520;2023-05-07T09:33:29;3.03;;;1.85;;
47760;SDS011;33524;55.434;38.520;2023-05-07T09:36:01;3.62;;;2.37;;
47760;SDS011;33524;55.434;38.520;2023-05-07T09:38:34;2.92;;;1.92;;
47760;SDS011;33524;55.434;38.520;2023-05-07T09:41:09;2.37;;;2.17;;
47760;SDS011;33524;55.434;38.520;2023-05-07T09:46:13;2.53;;;1.45;;
47760;SDS011;33524;55.434;38.520;2023-05-07T09:48:45;2.53;;;1.50;;
47760;SDS011;33524;55.434;38.520;2023-05-07T09:51:21;3.17;;;1.40;;
47760;SDS011;33524;55.434;38.520;2023-05-07T09:53:51;2.22;;;1.10;;
47760;SDS011;33524;55.434;38.520;2023-05-07T09:56:20;4.55;;;1.50;;
47760;SDS011;33524;55.434;38.520;2023-05-07T09:58:49;4.60;;;2.22;;
47760;SDS011;33524;55.434;38.520;2023-05-07T10:01:21;3.00;;;2.42;;
47760;SDS011;33524;55.434;38.520;2023-05-07T10:03:50;3.35;;;1.98;;
47760;SDS011;33524;55.434;38.520;2023-05-07T10:06:20;4.03;;;2.35;;
47760;SDS011;33524;55.434;38.520;2023-05-07T10:08:50;4.87;;;1.75;;
47760;SDS011;33524;55.434;38.520;2023-05-07T10:11:21;1.77;;;1.10;;
47760;SDS011;33524;55.434;38.520;2023-05-07T10:13:50;2.17;;;1.45;;
47760;SDS011;33524;55.434;38.520;2023-05-07T10:16:21;3.62;;;1.60;;
47760;SDS011;33524;55.434;38.520;2023-05-07T10:18:50;3.72;;;1.70;;
47760;SDS011;33524;55.434;38.520;2023-05-07T10:21:20;1.62;;;1.20;;
47760;SDS011;33524;55.434;38.520;2023-05-07T10:24:05;2.27;;;1.73;;
47760;SDS011;33524;55.434;38.520;2023-05-07T10:26:44;4.57;;;2.05;;
47760;SDS011;33524;55.434;38.520;2023-05-07T10:29:18;7.03;;;2.17;;
47760;SDS011;33524;55.434;38.520;2023-05-07T10:35:21;4.57;;;1.75;;
47760;SDS011;33524;55.434;38.520;2023-05-07T10:37:53;2.30;;;1.50;;
47760;SDS011;33524;55.434;38.520;2023-05-07T10:40:23;1.62;;;0.90;;
47760;SDS011;33524;55.434;38.520;2023-05-07T10:42:58;1.98;;;1.17;;
47760;SDS011;33524;55.434;38.520;2023-05-07T10:45:36;8.32;;;6.72;;
47760;SDS011;33524;55.434;38.520;2023-05-07T10:48:06;8.80;;;4.35;;
47760;SDS011;33524;55.434;38.520;2023-05-07T10:50:44;3.25;;;2.00;;
47760;SDS011;33524;55.434;38.520;2023-05-07T10:55:50;11.63;;;7.93;;
47760;SDS011;33524;55.434;38.520;2023-05-07T10:58:42;7.78;;;4.82;;
47760;SDS011;33524;55.434;38.520;2023-05-07T11:01:11;8.38;;;4.40;;
47760;SDS011;33524;55.434;38.520;2023-05-07T11:06:56;4.00;;;2.85;;
47760;SDS011;33524;55.434;38.520;2023-05-07T11:15:05;4.75;;;2.20;;
47760;SDS011;33524;55.434;38.520;2023-05-07T11:17:55;4.75;;;2.83;;
47760;SDS011;33524;55.434;38.520;2023-05-07T11:20:46;3.83;;;1.90;;
47760;SDS011;33524;55.434;38.520;2023-05-07T11:26:04;2.53;;;1.62;;
47760;SDS011;33524;55.434;38.520;2023-05-07T11:31:10;2.08;;;1.30;;
47760;SDS011;33524;55.434;38.520;2023-05-07T11:33:40;2.45;;;1.30;;
47760;SDS011;33524;55.434;38.520;2023-05-07T11:36:12;5.07;;;2.83;;
47760;SDS011;33524;55.434;38.520;2023-05-07T11:38:42;1.90;;;1.23;;
47760;SDS011;33524;55.434;38.520;2023-05-07T11:41:10;3.30;;;1.90;;
47760;SDS011;33524;55.434;38.520;2023-05-07T11:43:40;2.85;;;2.00;;
47760;SDS011;33524;55.434;38.520;2023-05-07T11:46:23;8.15;;;2.25;;
47760;SDS011;33524;55.434;38.520;2023-05-07T11:48:52;3.05;;;2.00;;
47760;SDS011;33524;55.434;38.520;2023-05-07T11:51:21;2.62;;;1.73;;
47760;SDS011;33524;55.434;38.520;2023-05-07T11:53:51;7.87;;;4.80;;
47760;SDS011;33524;55.434;38.520;2023-05-07T11:56:21;2.87;;;1.45;;
47760;SDS011;33524;55.434;38.520;2023-05-07T11:58:49;6.32;;;4.03;;
47760;SDS011;33524;55.434;38.520;2023-05-07T12:01:20;4.18;;;2.62;;
47760;SDS011;33524;55.434;38.520;2023-05-07T12:03:48;3.30;;;1.80;;
47760;SDS011;33524;55.434;38.520;2023-05-07T12:06:17;1.90;;;1.60;;
47760;SDS011;33524;55.434;38.520;2023-05-07T12:08:45;2.53;;;1.60;;
47760;SDS011;33524;55.434;38.520;2023-05-07T12:11:16;6.68;;;5.03;;
47760;SDS011;33524;55.434;38.520;2023-05-07T12:13:50;4.30;;;3.08;;
47760;SDS011;33524;55.434;38.520;2023-05-07T12:16:19;6.00;;;3.97;;
47760;SDS011;33524;55.434;38.520;2023-05-07T12:18:48;6.20;;;3.72;;
47760;SDS011;33524;55.434;38.520;2023-05-07T12:21:35;11.80;;;6.85;;
47760;SDS011;33524;55.434;38.520;2023-05-07T12:24:04;3.62;;;2.00;;
47760;SDS011;33524;55.434;38.520;2023-05-07T12:26:33;6.57;;;4.22;;
47760;SDS011;33524;55.434;38.520;2023-05-07T12:29:06;4.10;;;2.35;;
47760;SDS011;33524;55.434;38.520;2023-05-07T12:31:34;4.03;;;2.37;;
47760;SDS011;33524;55.434;38.520;2023-05-07T12:34:02;2.70;;;1.70;;
47760;SDS011;33524;55.434;38.520;2023-05-07T12:36:40;5.12;;;1.83;;
47760;SDS011;33524;55.434;38.520;2023-05-07T12:39:08;6.43;;;1.87;;
47760;SDS011;33524;55.434;38.520;2023-05-07T12:41:56;2.20;;;1.20;;
47760;SDS011;33524;55.434;38.520;2023-05-07T12:44:32;2.20;;;1.10;;
47760;SDS011;33524;55.434;38.520;2023-05-07T12:47:01;1.37;;;1.00;;
47760;SDS011;33524;55.434;38.520;2023-05-07T12:49:30;1.85;;;1.17;;
47760;SDS011;33524;55.434;38.520;2023-05-07T12:51:58;3.78;;;2.10;;
47760;SDS011;33524;55.434;38.520;2023-05-07T12:54:31;3.55;;;2.08;;
47760;SDS011;33524;55.434;38.520;2023-05-07T12:57:03;3.35;;;1.98;;
47760;SDS011;33524;55.434;38.520;2023-05-07T12:59:34;2.67;;;1.62;;
47760;SDS011;33524;55.434;38.520;2023-05-07T13:02:08;3.87;;;2.17;;
47760;SDS011;33524;55.434;38.520;2023-05-07T13:04:38;5.22;;;2.70;;
47760;SDS011;33524;55.434;38.520;2023-05-07T13:07:10;4.93;;;2.22;;
47760;SDS011;33524;55.434;38.520;2023-05-07T13:09:38;3.53;;;1.92;;
47760;SDS011;33524;55.434;38.520;2023-05-07T13:12:06;3.37;;;2.45;;
47760;SDS011;33524;55.434;38.520;2023-05-07T13:14:35;4.50;;;2.45;;
47760;SDS011;33524;55.434;38.520;2023-05-07T13:17:03;2.97;;;2.05;;
47760;SDS011;33524;55.434;38.520;2023-05-07T13:19:31;3.95;;;2.45;;
47760;SDS011;33524;55.434;38.520;2023-05-07T13:21:59;3.05;;;2.00;;
47760;SDS011;33524;55.434;38.520;2023-05-07T13:24:28;3.40;;;2.12;;
47760;SDS011;33524;55.434;38.520;2023-05-07T13:26:58;4.20;;;2.20;;
47760;SDS011;33524;55.434;38.520;2023-05-07T13:29:26;2.75;;;2.37;;
47760;SDS011;33524;55.434;38.520;2023-05-07T13:31:58;4.10;;;2.22;;
47760;SDS011;33524;55.434;38.520;2023-05-07T13:34:27;4.32;;;2.00;;
47760;SDS011;33524;55.434;38.520;2023-05-07T13:36:55;5.97;;;4.22;;
47760;SDS011;33524;55.434;38.520;2023-05-07T13:39:24;6.22;;;3.50;;
47760;SDS011;33524;55.434;38.520;2023-05-07T13:41:52;5.03;;;2.53;;
47760;SDS011;33524;55.434;38.520;2023-05-07T13:44:21;3.53;;;2.00;;
47760;SDS011;33524;55.434;38.520;2023-05-07T13:46:49;4.05;;;2.03;;
47760;SDS011;33524;55.434;38.520;2023-05-07T13:49:20;5.03;;;2.20;;
47760;SDS011;33524;55.434;38.520;2023-05-07T13:51:52;4.57;;;2.50;;
47760;SDS011;33524;55.434;38.520;2023-05-07T13:54:20;6.62;;;2.85;;
47760;SDS011;33524;55.434;38.520;2023-05-07T13:56:48;4.95;;;2.90;;
47760;SDS011;33524;55.434;38.520;2023-05-07T13:59:16;4.07;;;2.85;;
47760;SDS011;33524;55.434;38.520;2023-05-07T14:01:44;4.60;;;3.33;;
47760;SDS011;33524;55.434;38.520;2023-05-07T14:04:13;4.75;;;2.62;;
47760;SDS011;33524;55.434;38.520;2023-05-07T14:06:41;5.10;;;2.35;;
47760;SDS011;33524;55.434;38.520;2023-05-07T14:09:09;2.83;;;2.20;;
47760;SDS011;33524;55.434;38.520;2023-05-07T14:11:40;4.28;;;2.85;;
47760;SDS011;33524;55.434;38.520;2023-05-07T14:14:08;4.25;;;2.03;;
47760;SDS011;33524;55.434;38.520;2023-05-07T14:16:40;2.45;;;1.50;;
47760;SDS011;33524;55.434;38.520;2023-05-07T14:19:08;2.72;;;2.10;;
47760;SDS011;33524;55.434;38.520;2023-05-07T14:21:36;5.10;;;3.78;;
47760;SDS011;33524;55.434;38.520;2023-05-07T14:24:07;7.53;;;5.05;;
47760;SDS011;33524;55.434;38.520;2023-05-07T14:26:38;5.47;;;3.00;;
47760;SDS011;33524;55.434;38.520;2023-05-07T14:29:06;4.82;;;3.08;;
47760;SDS011;33524;55.434;38.520;2023-05-07T14:31:34;3.92;;;1.67;;
47760;SDS011;33524;55.434;38.520;2023-05-07T14:34:03;6.43;;;2.03;;
47760;SDS011;33524;55.434;38.520;2023-05-07T14:36:32;4.07;;;2.20;;
47760;SDS011;33524;55.434;38.520;2023-05-07T14:39:01;3.03;;;2.12;;
47760;SDS011;33524;55.434;38.520;2023-05-07T14:41:29;2.55;;;1.80;;
47760;SDS011;33524;55.434;38.520;2023-05-07T14:43:59;4.62;;;2.22;;
47760;SDS011;33524;55.434;38.520;2023-05-07T14:46:27;5.12;;;3.08;;
47760;SDS011;33524;55.434;38.520;2023-05-07T14:48:56;4.78;;;2.60;;
47760;SDS011;33524;55.434;38.520;2023-05-07T14:51:25;3.70;;;2.42;;
47760;SDS011;33524;55.434;38.520;2023-05-07T14:53:55;2.53;;;1.85;;
47760;SDS011;33524;55.434;38.520;2023-05-07T14:56:24;7.00;;;2.78;;
47760;SDS011;33524;55.434;38.520;2023-05-07T14:58:52;6.10;;;3.28;;
47760;SDS011;33524;55.434;38.520;2023-05-07T15:01:21;6.05;;;2.72;;
47760;SDS011;33524;55.434;38.520;2023-05-07T15:03:49;5.62;;;2.80;;
47760;SDS011;33524;55.434;38.520;2023-05-07T15:06:18;3.45;;;2.15;;